Details From CYZY - Mackenzie
To CZMT - Masset
Flight Number -
Tags Novice Generated
Created
Modified
Stats Distance 321 nm / 595 km
Max Altitude 0 ft / 0 m
Waypoints 2
Social Downloads 49
Likes 1
Share VATSIM

Download

Looking for another format? Having issues loading an existing format? Contact us
Advertisement - Login to hide

Notes

Generated

Route

CYZY CZMT

ID Type Via Altitude (ft/m) Position (lat/lon) Dist (leg/tot) Name
O CYZY APT - 0 / 0 55.31111 / -123.13084 - / 0 nm
O CZMT APT - 0 / 0 54.03042 / -132.12440 321 / 321 nm

Altitude Profile

Advertisement - Login to hide

Weather


0- 5 10 15 20 25 30 35+ Temperature / °C

Clouds and Precipitation
Forecast for 2020-03-29 00:00 UTC. Updated 5 hours ago

Ground ~20,000 ft ~40,000 ft Winds

CYZY

Details ICAO CYZY
Name MACKENZIE
Region Canada
Timezone America/Vancouver (UTC-7.0)
Stats Elevation 2,264 ft / 690 m (AMSL)
Location 55.304300° -123.132000°
Runways 1
Magnetic Variation 17.347° E

METAR

CYZY 290237Z AUTO 35010G16KT 320V020 1 1/4SM -SN OVC020 M12/M16 A2957 RMK SLP069

Decode

TAF

TAF AMD TAF AMD CYZY 290127Z 2901/2909 34010G20KT P6SM OVC040 TEMPO 2901/2903 2SM -SN OVC020 FM290300 33005KT P6SM OVC030 TEMPO 2903/2909 3SM -SN OVC020 RMK FCST BASED ON AUTO OBS. NXT FCST BY 290700Z

Decode

Departure Runways

ID Width Length Bearing (true/mag) Surface Threshold Overrun Markings Lighting
16 100 ft / 30 m 4,994 ft / 1,522 m 185.95° / 168.60° ASPHALT 0 ft / 0 m 0 ft / 0 m APP EDGE THRESHOLD
34 100 ft / 30 m 4,994 ft / 1,522 m 5.95° / 348.60° ASPHALT 0 ft / 0 m 0 ft / 0 m APP EDGE THRESHOLD

CZMT

Details ICAO CZMT (ZMT)
Name Masset
Region Canada
Timezone America/Vancouver (UTC-7.0)
Stats Elevation 25 ft / 8 m (AMSL)
Location 54.027100° -132.125000°
Runways 1
Magnetic Variation 17.677° E

METAR

CZMT 290100Z 33006KT 15SM -RA FEW006 SCT015 BKN030 OVC200 06/06 A2941 RMK SF1SC3SC2CI2 -RA INTMT LAST STFD OBS/NXT 291400Z SLP960

Decode

TAF

TAF CZMT 281847Z 2819/2901 16008KT P6SM FEW015 BKN030 TEMPO 2819/2901 BKN015 OVC030 BECMG 2820/2822 30008KT RMK NXT FCST WILL BE ISSUED AT 291515Z

Decode

Destination Runways

ID Width Length Bearing (true/mag) Surface Threshold Overrun Markings Lighting
13 98 ft / 30 m 4,917 ft / 1,499 m 147.98° / 130.31° ASPHALT 0 ft / 0 m 0 ft / 0 m PREC-APP EDGE THRESHOLD REIL-UNI
31 98 ft / 30 m 4,917 ft / 1,499 m 327.99° / 310.32° ASPHALT 249 ft / 76 m 0 ft / 0 m PREC-APP EDGE THRESHOLD REIL-UNI

Popular Alternatives